createdAt,value
2018-08-18T00:02:07.947Z,98338.00
2018-08-18T00:06:10.176Z,98338.00
2018-08-18T00:10:17.275Z,98341.00
2018-08-18T00:14:19.444Z,98336.00
2018-08-18T00:18:21.588Z,98340.00
2018-08-18T00:22:23.764Z,98338.00
2018-08-18T00:26:26.356Z,98338.00
2018-08-18T00:30:28.570Z,98329.00
2018-08-18T00:34:30.839Z,98334.00
2018-08-18T00:38:32.971Z,98342.00
2018-08-18T00:42:35.219Z,98341.00
2018-08-18T00:46:37.439Z,98340.00
2018-08-18T00:50:41.497Z,98336.00
2018-08-18T00:54:43.661Z,98336.00
2018-08-18T00:58:53.891Z,98352.00
2018-08-18T01:02:57.664Z,98355.00
2018-08-18T01:06:59.928Z,98352.00
2018-08-18T01:11:02.264Z,98360.00
2018-08-18T01:15:07.212Z,98363.00
2018-08-18T01:19:09.649Z,98359.00
2018-08-18T01:23:11.879Z,98360.00
2018-08-18T01:27:14.918Z,98350.00
2018-08-18T01:31:20.007Z,98374.00
2018-08-18T01:35:22.942Z,98374.00
2018-08-18T01:39:25.232Z,98373.00
2018-08-18T01:43:27.356Z,98378.00
2018-08-18T01:47:29.731Z,98377.00
2018-08-18T01:51:31.859Z,98385.00
2018-08-18T01:55:34.050Z,98374.00
2018-08-18T01:59:37.307Z,98384.00
2018-08-18T02:03:39.507Z,98388.00
2018-08-18T02:07:41.658Z,98379.00
2018-08-18T02:11:45.105Z,98376.00
2018-08-18T02:15:47.238Z,98382.00
2018-08-18T02:19:49.394Z,98381.00
2018-08-18T02:23:51.544Z,98389.00
2018-08-18T02:27:53.750Z,98387.00
2018-08-18T02:31:55.880Z,98388.00
2018-08-18T02:35:58.006Z,98383.00
2018-08-18T02:40:00.258Z,98384.00
2018-08-18T02:44:02.410Z,98383.00
2018-08-18T02:48:10.796Z,98378.00
2018-08-18T02:52:18.598Z,98372.00
2018-08-18T02:56:22.496Z,98367.00
2018-08-18T03:00:30.575Z,98377.00
2018-08-18T03:04:37.251Z,98375.00
2018-08-18T03:08:39.885Z,98375.00
2018-08-18T03:12:43.092Z,98378.00
2018-08-18T03:16:45.321Z,98380.00
2018-08-18T03:20:47.494Z,98381.00
2018-08-18T03:24:49.619Z,98394.00
2018-08-18T03:28:51.827Z,98391.00
2018-08-18T03:32:53.984Z,98385.00
2018-08-18T03:36:56.134Z,98391.00
2018-08-18T03:40:58.278Z,98389.00
2018-08-18T03:45:00.501Z,98393.00
2018-08-18T03:49:02.711Z,98392.00
2018-08-18T03:53:07.088Z,98404.00
2018-08-18T03:57:09.255Z,98397.00
2018-08-18T04:01:11.395Z,98407.00
2018-08-18T04:05:13.619Z,98415.00
2018-08-18T04:09:20.963Z,98410.00
2018-08-18T04:13:23.047Z,98409.00
2018-08-18T04:17:30.155Z,98415.00
2018-08-18T04:21:33.270Z,98413.00
2018-08-18T04:25:35.416Z,98420.00
2018-08-18T04:29:37.571Z,98412.00
2018-08-18T04:33:39.726Z,98415.00
2018-08-18T04:37:42.158Z,98422.00
2018-08-18T04:41:44.304Z,98428.00
2018-08-18T04:45:46.486Z,98431.00
2018-08-18T04:49:48.975Z,98433.00
2018-08-18T04:53:52.018Z,98435.00
2018-08-18T04:57:54.242Z,98439.00
2018-08-18T05:01:56.392Z,98437.00
2018-08-18T05:05:58.575Z,98446.00
2018-08-18T05:10:01.483Z,98439.00
2018-08-18T05:14:03.819Z,98432.00
2018-08-18T05:18:06.020Z,98441.00
2018-08-18T05:22:08.259Z,98452.00
2018-08-18T05:26:10.593Z,98449.00
2018-08-18T05:30:12.808Z,98461.00
2018-08-18T05:34:15.127Z,98460.00
2018-08-18T05:38:17.309Z,98467.00
2018-08-18T05:42:19.591Z,98471.00
2018-08-18T05:46:21.771Z,98466.00
2018-08-18T05:50:24.732Z,98476.00
2018-08-18T05:54:27.353Z,98470.00
2018-08-18T05:59:00.582Z,98470.00
2018-08-18T06:03:02.776Z,98477.00
2018-08-18T06:07:04.975Z,98473.00
2018-08-18T06:11:07.143Z,98470.00
2018-08-18T06:15:09.450Z,98478.00
2018-08-18T06:19:11.711Z,98478.00
2018-08-18T06:23:13.871Z,98482.00
2018-08-18T06:27:18.514Z,98484.00
2018-08-18T06:31:20.784Z,98478.00
2018-08-18T06:35:23.051Z,98492.00
2018-08-18T06:39:25.331Z,98494.00
2018-08-18T06:43:29.103Z,98498.00
2018-08-18T06:47:31.331Z,98497.00
2018-08-18T06:51:33.627Z,98503.00
2018-08-18T06:55:35.815Z,98498.00
2018-08-18T06:59:38.034Z,98496.00
2018-08-18T07:03:44.825Z,98507.00
2018-08-18T07:07:47.853Z,98502.00
2018-08-18T07:11:50.039Z,98505.00
2018-08-18T07:15:52.291Z,98508.00
2018-08-18T07:19:54.566Z,98513.00
2018-08-18T07:23:56.843Z,98507.00
2018-08-18T07:28:05.249Z,98521.00
2018-08-18T07:32:08.245Z,98516.00
2018-08-18T07:36:10.427Z,98507.00
2018-08-18T07:40:12.615Z,98514.00
2018-08-18T07:44:14.787Z,98519.00
2018-08-18T07:48:17.044Z,98519.00
2018-08-18T07:52:19.218Z,98519.00
2018-08-18T07:56:21.406Z,98522.00
2018-08-18T08:00:27.115Z,98526.00
2018-08-18T08:04:29.447Z,98522.00
2018-08-18T08:08:37.313Z,98516.00
2018-08-18T08:12:39.614Z,98527.00
2018-08-18T08:16:41.739Z,98512.00
2018-08-18T08:20:44.103Z,98518.00
2018-08-18T08:24:46.276Z,98523.00
2018-08-18T08:28:48.647Z,98523.00
2018-08-18T08:32:51.257Z,98526.00
2018-08-18T08:36:53.466Z,98531.00
2018-08-18T08:40:55.639Z,98525.00
2018-08-18T08:44:57.974Z,98525.00
2018-08-18T08:49:00.959Z,98536.00
2018-08-18T08:53:03.162Z,98534.00
2018-08-18T08:57:06.791Z,98528.00
2018-08-18T09:01:08.984Z,98535.00
2018-08-18T09:05:11.513Z,98531.00
2018-08-18T09:09:13.803Z,98536.00
2018-08-18T09:13:16.012Z,98511.00
2018-08-18T09:17:18.958Z,98529.00
2018-08-18T09:21:21.493Z,98523.00
2018-08-18T09:25:25.123Z,98537.00
2018-08-18T09:29:31.847Z,98528.00
2018-08-18T09:33:34.503Z,98520.00
2018-08-18T09:37:36.835Z,98524.00
2018-08-18T09:41:39.314Z,98523.00
2018-08-18T09:45:41.478Z,98523.00
2018-08-18T09:49:44.313Z,98535.00
2018-08-18T09:53:46.603Z,98523.00
2018-08-18T09:57:48.757Z,98526.00
2018-08-18T10:01:51.374Z,98517.00
2018-08-18T10:05:53.579Z,98521.00
2018-08-18T10:09:55.877Z,98520.00
2018-08-18T10:13:58.628Z,98518.00
2018-08-18T10:18:00.858Z,98516.00
2018-08-18T10:22:03.136Z,98514.00
2018-08-18T10:26:05.338Z,98519.00
2018-08-18T10:30:07.513Z,98523.00
2018-08-18T10:34:09.740Z,98512.00
2018-08-18T10:38:11.936Z,98511.00
2018-08-18T10:42:20.096Z,98517.00
2018-08-18T10:46:22.297Z,98514.00
2018-08-18T10:50:43.396Z,98519.00
2018-08-18T10:54:45.624Z,98514.00
2018-08-18T10:59:04.996Z,98505.00
2018-08-18T11:03:08.153Z,98504.00
2018-08-18T11:07:10.395Z,98509.00
2018-08-18T11:11:17.092Z,98509.00
2018-08-18T11:15:19.350Z,98504.00
2018-08-18T11:19:21.759Z,98511.00
2018-08-18T11:23:23.931Z,98511.00
2018-08-18T11:27:26.096Z,98500.00
2018-08-18T11:31:28.294Z,98509.00
2018-08-18T11:35:31.210Z,98502.00
2018-08-18T11:39:33.362Z,98496.00
2018-08-18T11:43:39.261Z,98496.00
2018-08-18T11:47:46.246Z,98500.00
2018-08-18T11:51:48.497Z,98492.00
2018-08-18T11:55:50.790Z,98491.00
2018-08-18T11:59:52.962Z,98485.00
2018-08-18T12:03:55.621Z,98485.00
2018-08-18T12:07:57.992Z,98487.00
2018-08-18T12:12:00.212Z,98489.00
2018-08-18T12:16:05.554Z,98486.00
2018-08-18T12:20:07.799Z,98483.00
2018-08-18T12:24:11.067Z,98477.00
2018-08-18T12:28:13.246Z,98485.00
2018-08-18T12:32:31.316Z,98475.00
2018-08-18T12:36:34.000Z,98475.00
2018-08-18T12:40:36.762Z,98466.00
2018-08-18T12:44:38.931Z,98475.00
2018-08-18T12:48:42.179Z,98465.00
2018-08-18T12:52:47.578Z,98463.00
2018-08-18T12:56:49.758Z,98462.00
2018-08-18T13:00:51.913Z,98466.00
2018-08-18T13:04:54.064Z,98463.00
2018-08-18T13:08:56.253Z,98451.00
2018-08-18T13:12:58.462Z,98446.00
2018-08-18T13:17:00.636Z,98440.00
2018-08-18T13:21:02.791Z,98442.00
2018-08-18T13:25:06.215Z,98430.00
2018-08-18T13:29:08.508Z,98431.00
2018-08-18T13:33:10.698Z,98431.00
2018-08-18T13:37:12.921Z,98429.00
2018-08-18T13:41:15.654Z,98425.00
2018-08-18T13:45:20.098Z,98435.00
2018-08-18T13:49:23.621Z,98432.00
2018-08-18T13:53:25.787Z,98430.00
2018-08-18T13:57:32.160Z,98427.00
2018-08-18T14:01:44.152Z,98430.00
2018-08-18T14:05:46.344Z,98424.00
2018-08-18T14:10:05.328Z,98426.00
2018-08-18T14:14:07.622Z,98408.00
2018-08-18T14:18:11.060Z,98415.00
2018-08-18T14:22:16.082Z,98418.00
2018-08-18T14:26:18.274Z,98413.00
2018-08-18T14:30:20.485Z,98409.00
2018-08-18T14:34:22.889Z,98409.00
2018-08-18T14:38:25.841Z,98401.00
2018-08-18T14:42:28.047Z,98408.00
2018-08-18T14:46:30.390Z,98410.00
2018-08-18T14:50:32.763Z,98411.00
2018-08-18T14:54:36.117Z,98404.00
2018-08-18T14:58:41.825Z,98407.00
2018-08-18T15:02:43.992Z,98402.00
2018-08-18T15:06:46.183Z,98400.00
2018-08-18T15:10:48.402Z,98399.00
2018-08-18T15:14:50.566Z,98383.00
2018-08-18T15:18:52.766Z,98386.00
2018-08-18T15:22:54.943Z,98392.00
2018-08-18T15:35:18.475Z,98397.00
2018-08-18T15:39:23.505Z,98387.00
2018-08-18T15:43:25.738Z,98387.00
2018-08-18T15:47:29.087Z,98387.00
2018-08-18T15:51:31.306Z,98389.00
2018-08-18T15:55:33.521Z,98383.00
2018-08-18T15:59:35.727Z,98374.00
2018-08-18T16:03:37.923Z,98372.00
2018-08-18T16:07:40.091Z,98367.00
2018-08-18T16:11:42.486Z,98373.00
2018-08-18T16:15:44.670Z,98372.00
2018-08-18T16:19:46.835Z,98377.00
2018-08-18T16:23:49.073Z,98378.00
2018-08-18T16:27:51.244Z,98379.00
2018-08-18T16:32:08.231Z,98379.00
2018-08-18T16:36:10.406Z,98378.00
2018-08-18T16:40:12.846Z,98380.00
2018-08-18T16:44:15.111Z,98378.00
2018-08-18T16:48:17.274Z,98378.00
2018-08-18T16:52:19.503Z,98373.00
2018-08-18T16:56:23.122Z,98374.00
2018-08-18T17:00:26.066Z,98372.00
2018-08-18T17:04:30.028Z,98379.00
2018-08-18T17:08:32.808Z,98379.00
2018-08-18T17:12:34.977Z,98381.00
2018-08-18T17:16:37.203Z,98387.00
2018-08-18T17:20:41.581Z,98387.00
2018-08-18T17:24:43.831Z,98392.00
2018-08-18T17:28:46.096Z,98391.00
2018-08-18T17:32:48.302Z,98395.00
2018-08-18T17:36:50.466Z,98395.00
2018-08-18T17:40:52.616Z,98400.00
2018-08-18T17:44:54.828Z,98401.00
2018-08-18T17:48:57.041Z,98400.00
2018-08-18T17:52:59.191Z,98408.00
2018-08-18T17:57:01.713Z,98411.00
2018-08-18T18:01:05.843Z,98419.00
2018-08-18T18:05:08.047Z,98422.00
2018-08-18T18:09:10.284Z,98425.00
2018-08-18T18:13:18.091Z,98437.00
2018-08-18T18:17:20.903Z,98437.00
2018-08-18T18:21:23.142Z,98435.00
2018-08-18T18:25:25.431Z,98431.00
2018-08-18T18:29:27.703Z,98442.00
2018-08-18T18:33:29.926Z,98440.00
2018-08-18T18:37:32.103Z,98440.00
2018-08-18T18:41:34.383Z,98443.00
2018-08-18T18:45:36.657Z,98444.00
2018-08-18T18:49:38.870Z,98454.00
2018-08-18T18:53:47.835Z,98458.00
2018-08-18T18:58:04.595Z,98457.00
2018-08-18T19:02:06.858Z,98464.00
2018-08-18T19:06:09.083Z,98469.00
2018-08-18T19:10:11.276Z,98471.00
2018-08-18T19:14:13.463Z,98473.00
2018-08-18T19:18:15.683Z,98472.00
2018-08-18T19:22:17.888Z,98477.00
2018-08-18T19:26:20.070Z,98482.00
2018-08-18T19:30:22.371Z,98484.00
2018-08-18T19:34:24.577Z,98487.00
2018-08-18T19:38:27.796Z,98485.00
2018-08-18T19:42:30.039Z,98488.00
2018-08-18T19:46:32.253Z,98487.00
2018-08-18T19:50:34.831Z,98485.00
2018-08-18T19:54:37.471Z,98488.00
2018-08-18T19:58:40.103Z,98487.00
2018-08-18T20:02:57.171Z,98489.00
2018-08-18T20:06:59.691Z,98492.00
2018-08-18T20:11:01.922Z,98493.00
2018-08-18T20:15:04.208Z,98495.00
2018-08-18T20:19:06.497Z,98490.00
2018-08-18T20:23:08.899Z,98496.00
2018-08-18T20:27:11.664Z,98502.00
2018-08-18T20:31:13.890Z,98508.00
2018-08-18T20:35:16.832Z,98507.00
2018-08-18T20:39:19.306Z,98501.00
2018-08-18T20:43:21.475Z,98507.00
2018-08-18T20:47:23.715Z,98505.00
2018-08-18T20:51:31.715Z,98507.00
2018-08-18T20:55:33.898Z,98507.00
2018-08-18T20:59:36.123Z,98511.00
2018-08-18T21:03:48.195Z,98512.00
2018-08-18T21:07:50.543Z,98510.00
2018-08-18T21:11:52.769Z,98511.00
2018-08-18T21:15:55.699Z,98516.00
2018-08-18T21:19:57.884Z,98520.00
2018-08-18T21:24:00.095Z,98520.00
2018-08-18T21:28:03.063Z,98524.00
2018-08-18T21:32:05.325Z,98525.00
2018-08-18T21:36:07.577Z,98523.00
2018-08-18T21:40:10.227Z,98530.00
2018-08-18T21:44:13.933Z,98530.00
2018-08-18T21:48:17.123Z,98534.00
2018-08-18T21:52:19.316Z,98535.00
2018-08-18T21:56:21.673Z,98535.00
2018-08-18T22:00:28.529Z,98546.00
2018-08-18T22:04:30.713Z,98545.00
2018-08-18T22:08:32.998Z,98545.00
2018-08-18T22:12:35.183Z,98542.00
2018-08-18T22:16:40.160Z,98545.00
2018-08-18T22:20:42.349Z,98547.00
2018-08-18T22:24:44.503Z,98552.00
2018-08-18T22:28:48.436Z,98554.00
2018-08-18T22:32:51.485Z,98552.00
2018-08-18T22:37:00.743Z,98556.00
2018-08-18T22:41:03.377Z,98552.00
2018-08-18T22:45:17.044Z,98551.00
2018-08-18T22:49:19.204Z,98543.00
2018-08-18T22:53:21.364Z,98540.00
2018-08-18T22:57:23.537Z,98537.00
2018-08-18T23:01:25.675Z,98529.00
2018-08-18T23:05:28.901Z,98531.00
2018-08-18T23:09:31.495Z,98523.00
2018-08-18T23:13:33.675Z,98538.00
2018-08-18T23:17:35.843Z,98527.00
2018-08-18T23:21:38.010Z,98525.00
2018-08-18T23:25:40.198Z,98517.00
2018-08-18T23:29:42.376Z,98523.00
2018-08-18T23:33:44.524Z,98517.00
2018-08-18T23:37:47.797Z,98519.00
2018-08-18T23:42:22.754Z,98520.00
2018-08-18T23:46:24.943Z,98511.00
2018-08-18T23:50:27.107Z,98513.00
2018-08-18T23:54:29.328Z,98517.00
2018-08-18T23:58:31.571Z,98518.00
